Time;durP1;ratioP1;P1;durP2;ratioP2;P2;SDS_P1;SDS_P2;PMS_P1;PMS_P2;Temp;Humidity;BMP_temperature;BMP_pressure;BME280_temperature;BME280_humidity;BME280_pressure;Samples;Min_cycle;Max_cycle;Signal;HPM_P1;HPM_P2
2023/06/20 00:02:22;;;;;;;4.65;3.72;;;;;;;;;;6203674;28;20097;-79
2023/06/20 00:05:24;;;;;;;4.57;3.72;;;;;;;;;;6205764;28;20038;-79
2023/06/20 00:08:26;;;;;;;4.13;3.70;;;;;;;;;;6188376;28;20046;-80
2023/06/20 00:11:28;;;;;;;5.38;4.05;;;;;;;;;;6204218;28;20104;-79
2023/06/20 00:14:30;;;;;;;3.97;3.58;;;;;;;;;;6207412;28;20038;-79
2023/06/20 00:17:31;;;;;;;4.97;3.85;;;;;;;;;;6193811;28;20053;-79
2023/06/20 00:20:33;;;;;;;6.00;4.30;;;;;;;;;;6205574;28;20046;-79
2023/06/20 00:23:35;;;;;;;5.07;4.03;;;;;;;;;;6208018;28;20111;-79
2023/06/20 00:26:37;;;;;;;7.20;4.25;;;;;;;;;;6208188;28;20049;-79
2023/06/20 00:29:39;;;;;;;5.13;4.10;;;;;;;;;;6189738;28;20173;-79
2023/06/20 00:32:42;;;;;;;5.43;4.15;;;;;;;;;;6186351;28;20120;-79
2023/06/20 00:35:43;;;;;;;4.78;4.03;;;;;;;;;;6176173;28;20044;-79
2023/06/20 00:38:48;;;;;;;5.80;4.57;;;;;;;;;;6194575;28;20115;-80
2023/06/20 00:41:51;;;;;;;4.90;4.30;;;;;;;;;;6167965;28;20039;-79
2023/06/20 00:44:53;;;;;;;4.95;4.45;;;;;;;;;;6186318;28;20049;-80
2023/06/20 00:47:57;;;;;;;4.40;4.00;;;;;;;;;;6205313;28;20139;-79
2023/06/20 00:50:59;;;;;;;6.40;4.15;;;;;;;;;;6189833;28;20054;-80
2023/06/20 00:54:01;;;;;;;5.38;4.32;;;;;;;;;;6202147;28;20135;-80
2023/06/20 00:57:04;;;;;;;5.18;4.05;;;;;;;;;;6189932;28;20054;-80
2023/06/20 01:00:11;;;;;;;;;;;;;;;;;;6206648;28;20597;-80
2023/06/20 01:03:14;;;;;;;4.85;4.30;;;;;;;;;;6186597;28;19922;-79
2023/06/20 01:06:42;;;;;;;5.72;4.65;;;;;;;;;;6193097;28;20129;-80
2023/06/20 01:09:55;;;;;;;4.43;4.03;;;;;;;;;;6188565;28;20049;-80
2023/06/20 01:13:03;;;;;;;5.15;4.57;;;;;;;;;;6195318;28;20038;-78
2023/06/20 01:16:42;;;;;;;6.13;4.70;;;;;;;;;;6206358;28;20065;-81
2023/06/20 01:20:10;;;;;;;5.80;4.45;;;;;;;;;;6184817;28;20061;-79
2023/06/20 01:23:17;;;;;;;6.70;4.40;;;;;;;;;;6203479;28;20041;-79
2023/06/20 01:26:33;;;;;;;6.22;4.68;;;;;;;;;;6189127;28;20051;-79
2023/06/20 01:29:44;;;;;;;7.20;4.95;;;;;;;;;;6196219;28;20077;-79
2023/06/20 01:32:48;;;;;;;6.47;4.68;;;;;;;;;;6195246;28;20042;-79
2023/06/20 01:35:50;;;;;;;9.40;5.22;;;;;;;;;;6190494;28;20046;-78
2023/06/20 01:38:59;;;;;;;6.68;4.45;;;;;;;;;;6178731;28;20462;-79
2023/06/20 01:42:03;;;;;;;6.68;4.85;;;;;;;;;;6198101;28;20116;-79
2023/06/20 01:45:06;;;;;;;5.43;4.57;;;;;;;;;;6200414;28;20046;-79
2023/06/20 01:48:11;;;;;;;8.00;5.57;;;;;;;;;;6206390;28;20039;-80
2023/06/20 01:51:14;;;;;;;7.03;5.05;;;;;;;;;;6203386;28;20542;-79
2023/06/20 01:54:17;;;;;;;6.45;5.13;;;;;;;;;;6198113;28;20531;-79
2023/06/20 01:57:20;;;;;;;8.07;5.50;;;;;;;;;;6166135;28;20100;-79
2023/06/20 02:00:24;;;;;;;8.23;5.80;;;;;;;;;;6188541;28;20049;-79
2023/06/20 02:03:28;;;;;;;8.77;5.50;;;;;;;;;;6183027;28;20045;-79
2023/06/20 02:06:30;;;;;;;7.45;5.65;;;;;;;;;;6184185;28;20050;-78
2023/06/20 02:09:35;;;;;;;7.70;6.13;;;;;;;;;;6194709;28;20039;-79
2023/06/20 02:12:41;;;;;;;7.80;5.13;;;;;;;;;;6203125;28;20050;-79
2023/06/20 02:15:45;;;;;;;6.80;5.47;;;;;;;;;;6166178;28;20045;-79
2023/06/20 02:18:48;;;;;;;9.98;6.00;;;;;;;;;;6197352;28;20730;-79
2023/06/20 02:21:50;;;;;;;;;;;;;;;;;;6200778;28;20185;-79
2023/06/20 02:24:54;;;;;;;7.78;5.60;;;;;;;;;;6199151;28;19944;-79
2023/06/20 02:27:57;;;;;;;7.60;5.80;;;;;;;;;;6202443;28;20065;-79
2023/06/20 02:31:00;;;;;;;8.95;5.70;;;;;;;;;;6189882;28;20104;-78
2023/06/20 02:34:05;;;;;;;6.82;5.72;;;;;;;;;;6179565;28;20125;-79
2023/06/20 02:37:07;;;;;;;7.20;5.97;;;;;;;;;;6189007;28;20046;-79
2023/06/20 02:40:10;;;;;;;6.90;5.82;;;;;;;;;;6165493;28;20068;-79
2023/06/20 02:43:11;;;;;;;7.80;6.07;;;;;;;;;;6184351;28;20053;-79
2023/06/20 02:46:46;;;;;;;8.13;6.40;;;;;;;;;;6201512;28;20115;-78
2023/06/20 02:50:07;;;;;;;8.52;5.95;;;;;;;;;;6176618;28;20099;-79
2023/06/20 02:53:26;;;;;;;7.00;6.30;;;;;;;;;;6199910;28;20042;-79
2023/06/20 02:56:30;;;;;;;8.50;6.13;;;;;;;;;;6201006;28;20041;-79
2023/06/20 02:59:36;;;;;;;8.23;6.13;;;;;;;;;;6203381;28;20026;-79
2023/06/20 03:02:46;;;;;;;8.35;6.05;;;;;;;;;;6201512;28;20104;-79
2023/06/20 03:05:50;;;;;;;8.02;6.07;;;;;;;;;;6169683;28;20084;-78
2023/06/20 03:08:53;;;;;;;10.73;6.47;;;;;;;;;;6196983;28;20512;-78
2023/06/20 03:11:55;;;;;;;;;;;;;;;;;;6185102;28;20038;-77
2023/06/20 03:14:57;;;;;;;7.63;6.63;;;;;;;;;;6178268;28;19929;-78
2023/06/20 03:18:01;;;;;;;9.02;6.85;;;;;;;;;;6191434;28;20052;-77
2023/06/20 03:21:04;;;;;;;10.05;6.55;;;;;;;;;;6176121;28;20192;-78
2023/06/20 03:24:27;;;;;;;8.68;7.22;;;;;;;;;;6181342;28;20100;-77
2023/06/20 03:27:29;;;;;;;8.13;6.60;;;;;;;;;;6184989;28;20048;-77
2023/06/20 03:30:30;;;;;;;11.88;7.43;;;;;;;;;;6175986;28;20043;-77
2023/06/20 03:33:32;;;;;;;8.18;6.55;;;;;;;;;;6186966;28;20080;-78
2023/06/20 03:36:34;;;;;;;10.57;7.10;;;;;;;;;;6184613;28;20050;-78
2023/06/20 03:39:36;;;;;;;12.02;7.20;;;;;;;;;;6190079;28;20248;-79
2023/06/20 03:42:38;;;;;;;;;;;;;;;;;;6174309;28;20050;-77
2023/06/20 03:45:40;;;;;;;9.50;6.32;;;;;;;;;;6183528;28;19944;-77
2023/06/20 03:48:42;;;;;;;11.25;6.43;;;;;;;;;;6195823;28;20081;-77
2023/06/20 03:51:44;;;;;;;10.02;7.55;;;;;;;;;;6196084;28;20401;-78
2023/06/20 03:54:46;;;;;;;8.95;6.72;;;;;;;;;;6195647;28;20517;-78
2023/06/20 03:57:48;;;;;;;10.38;7.22;;;;;;;;;;6184781;28;20046;-78
2023/06/20 04:00:50;;;;;;;8.82;6.53;;;;;;;;;;6186558;28;20049;-77
2023/06/20 04:03:53;;;;;;;7.90;6.80;;;;;;;;;;6179584;28;20048;-77
2023/06/20 04:06:57;;;;;;;8.18;6.82;;;;;;;;;;6184989;28;20092;-78
2023/06/20 04:09:58;;;;;;;8.95;6.75;;;;;;;;;;6186584;28;20093;-77
2023/06/20 04:13:00;;;;;;;10.93;7.38;;;;;;;;;;6188318;28;20049;-77
2023/06/20 04:16:03;;;;;;;9.02;7.35;;;;;;;;;;6196840;28;20038;-77
2023/06/20 04:19:04;;;;;;;12.02;7.80;;;;;;;;;;6175967;28;20057;-78
2023/06/20 04:22:08;;;;;;;12.10;7.43;;;;;;;;;;6181721;28;20042;-77
2023/06/20 04:25:14;;;;;;;11.07;7.97;;;;;;;;;;6164143;28;20520;-78
2023/06/20 04:28:18;;;;;;;11.85;7.55;;;;;;;;;;6182962;28;20139;-78
2023/06/20 04:31:29;;;;;;;10.95;7.65;;;;;;;;;;6176223;28;20050;-77
2023/06/20 04:34:31;;;;;;;8.70;7.68;;;;;;;;;;6180429;28;20471;-77
2023/06/20 04:37:32;;;;;;;9.45;7.68;;;;;;;;;;6186100;28;20501;-77
2023/06/20 04:40:36;;;;;;;10.02;7.68;;;;;;;;;;6181674;28;20189;-77
2023/06/20 04:43:38;;;;;;;11.18;7.78;;;;;;;;;;6192740;28;20129;-77
2023/06/20 04:46:39;;;;;;;10.00;7.60;;;;;;;;;;6199511;28;20042;-77
2023/06/20 04:49:41;;;;;;;10.70;7.70;;;;;;;;;;6194324;28;20046;-78
2023/06/20 04:52:44;;;;;;;10.65;7.55;;;;;;;;;;6184349;28;20392;-78
2023/06/20 04:55:45;;;;;;;11.20;8.50;;;;;;;;;;6191984;28;20045;-78
2023/06/20 04:58:47;;;;;;;10.02;7.88;;;;;;;;;;6203392;28;20046;-77
2023/06/20 05:01:52;;;;;;;10.23;7.93;;;;;;;;;;6181094;28;20504;-77
2023/06/20 05:04:54;;;;;;;10.57;7.78;;;;;;;;;;6170857;28;20458;-77
2023/06/20 05:07:58;;;;;;;10.15;7.57;;;;;;;;;;6197324;28;20168;-78
2023/06/20 05:11:00;;;;;;;8.80;7.55;;;;;;;;;;6155838;28;20049;-77
2023/06/20 05:14:02;;;;;;;10.27;8.23;;;;;;;;;;6201569;28;20049;-77
2023/06/20 05:17:04;;;;;;;9.95;7.80;;;;;;;;;;6200226;28;20041;-76
2023/06/20 05:20:06;;;;;;;11.00;8.30;;;;;;;;;;6175765;28;20045;-78
2023/06/20 05:23:08;;;;;;;9.20;7.75;;;;;;;;;;6202857;28;20053;-76
2023/06/20 05:26:11;;;;;;;9.75;7.70;;;;;;;;;;6196743;28;20041;-77
2023/06/20 05:29:13;;;;;;;;;;;;;;;;;;6198412;28;20540;-77
2023/06/20 05:32:14;;;;;;;10.00;7.85;;;;;;;;;;6188698;28;20301;-77
2023/06/20 05:35:16;;;;;;;9.82;8.20;;;;;;;;;;6184565;28;20069;-77
2023/06/20 05:38:18;;;;;;;10.18;8.20;;;;;;;;;;6189785;28;20046;-77
2023/06/20 05:41:19;;;;;;;11.02;8.00;;;;;;;;;;6192688;28;20043;-77
2023/06/20 05:44:21;;;;;;;11.00;8.65;;;;;;;;;;6201894;28;20041;-77
2023/06/20 05:47:23;;;;;;;9.40;8.40;;;;;;;;;;6200826;28;20452;-77
2023/06/20 05:50:25;;;;;;;10.65;8.05;;;;;;;;;;6197277;28;20053;-77
2023/06/20 05:53:27;;;;;;;13.00;8.48;;;;;;;;;;6192889;28;20053;-76
2023/06/20 05:56:29;;;;;;;12.65;8.73;;;;;;;;;;6201345;28;20030;-75
2023/06/20 05:59:31;;;;;;;10.88;8.38;;;;;;;;;;6201878;28;20522;-76
2023/06/20 06:02:32;;;;;;;14.10;9.48;;;;;;;;;;6186538;28;20516;-76
2023/06/20 06:05:34;;;;;;;12.55;9.13;;;;;;;;;;6188673;28;20050;-78
2023/06/20 06:08:36;;;;;;;14.18;9.43;;;;;;;;;;6190030;28;20050;-78
2023/06/20 06:11:38;;;;;;;12.32;9.18;;;;;;;;;;6200517;28;20052;-78
2023/06/20 06:14:39;;;;;;;15.25;10.02;;;;;;;;;;6164666;28;20467;-77
2023/06/20 06:17:41;;;;;;;14.38;10.02;;;;;;;;;;6178740;28;20085;-78
2023/06/20 06:20:44;;;;;;;16.40;10.57;;;;;;;;;;6190195;28;20061;-77
2023/06/20 06:23:47;;;;;;;16.73;10.02;;;;;;;;;;6185153;28;20053;-78
2023/06/20 06:26:49;;;;;;;;;;;;;;;;;;6182218;28;20520;-78
2023/06/20 06:29:51;;;;;;;13.65;9.95;;;;;;;;;;6181840;28;19973;-78
2023/06/20 06:32:53;;;;;;;15.30;9.88;;;;;;;;;;6183719;28;20072;-76
2023/06/20 06:35:56;;;;;;;14.18;10.73;;;;;;;;;;6180939;28;20049;-78
2023/06/20 06:38:58;;;;;;;;;;;;;;;;;;6165471;28;20492;-78
2023/06/20 06:42:00;;;;;;;15.35;10.52;;;;;;;;;;6198494;28;19928;-78
2023/06/20 06:45:02;;;;;;;18.58;11.48;;;;;;;;;;6204095;28;20577;-78
2023/06/20 06:48:04;;;;;;;17.37;10.73;;;;;;;;;;6197161;28;20547;-79
2023/06/20 06:51:06;;;;;;;18.00;10.67;;;;;;;;;;6178540;28;20048;-78
2023/06/20 06:54:08;;;;;;;17.65;11.00;;;;;;;;;;6194166;28;20046;-77
2023/06/20 06:57:10;;;;;;;17.70;11.93;;;;;;;;;;6201376;28;20046;-77
2023/06/20 07:00:14;;;;;;;17.45;11.25;;;;;;;;;;6199788;28;20045;-77
2023/06/20 07:03:16;;;;;;;16.45;12.00;;;;;;;;;;6196124;28;20049;-76
2023/06/20 07:06:19;;;;;;;15.88;11.68;;;;;;;;;;6199243;28;20096;-78
2023/06/20 07:09:21;;;;;;;15.85;11.57;;;;;;;;;;6198274;28;20049;-78
2023/06/20 07:12:23;;;;;;;16.25;11.18;;;;;;;;;;6201293;28;20046;-78
2023/06/20 07:15:25;;;;;;;15.77;11.27;;;;;;;;;;6179607;28;20042;-77
2023/06/20 07:18:27;;;;;;;16.63;11.45;;;;;;;;;;6201809;28;20042;-77
2023/06/20 07:21:30;;;;;;;16.27;10.90;;;;;;;;;;6200539;28;20416;-78
2023/06/20 07:24:31;;;;;;;18.63;11.15;;;;;;;;;;6178973;28;20500;-77
2023/06/20 07:27:34;;;;;;;15.20;11.07;;;;;;;;;;6198129;28;20471;-77
2023/06/20 07:30:35;;;;;;;12.93;10.63;;;;;;;;;;6192715;28;20046;-77
2023/06/20 07:33:37;;;;;;;14.10;11.13;;;;;;;;;;6200561;28;20108;-77
2023/06/20 07:36:39;;;;;;;14.20;10.80;;;;;;;;;;6164565;28;20581;-77
2023/06/20 07:39:43;;;;;;;14.82;10.95;;;;;;;;;;6193801;28;20050;-77
2023/06/20 07:42:44;;;;;;;12.32;10.48;;;;;;;;;;6189238;28;20041;-77
2023/06/20 07:45:46;;;;;;;14.00;11.02;;;;;;;;;;6200416;28;20042;-77
2023/06/20 07:48:48;;;;;;;13.75;10.73;;;;;;;;;;6181034;28;20046;-77
2023/06/20 07:51:49;;;;;;;11.77;9.60;;;;;;;;;;6182446;28;22481;-77
2023/06/20 07:54:52;;;;;;;11.73;9.52;;;;;;;;;;6201784;28;20073;-76
2023/06/20 07:57:53;;;;;;;11.23;9.60;;;;;;;;;;6182172;28;20430;-77
2023/06/20 08:00:56;;;;;;;12.20;10.02;;;;;;;;;;6198806;28;20132;-78
2023/06/20 08:03:58;;;;;;;12.10;9.00;;;;;;;;;;6197937;28;20551;-77
2023/06/20 08:07:00;;;;;;;11.20;8.27;;;;;;;;;;6209962;28;20053;-78
2023/06/20 08:10:03;;;;;;;7.22;6.10;;;;;;;;;;6203286;28;20053;-78
2023/06/20 08:13:05;;;;;;;8.60;7.72;;;;;;;;;;6196914;28;20163;-78
2023/06/20 08:16:06;;;;;;;9.40;8.10;;;;;;;;;;6195976;28;20046;-78
2023/06/20 08:19:11;;;;;;;9.60;8.60;;;;;;;;;;6184097;28;20104;-78
2023/06/20 08:22:13;;;;;;;9.60;8.17;;;;;;;;;;6200586;28;20393;-78
2023/06/20 08:25:15;;;;;;;10.35;9.13;;;;;;;;;;6185495;28;20516;-78
2023/06/20 08:28:16;;;;;;;11.20;8.77;;;;;;;;;;6198296;28;20045;-78
2023/06/20 08:31:18;;;;;;;9.80;8.48;;;;;;;;;;6204451;28;20180;-78
2023/06/20 08:34:20;;;;;;;9.07;7.88;;;;;;;;;;6180644;28;20056;-78
2023/06/20 08:37:22;;;;;;;9.23;8.33;;;;;;;;;;6199965;28;20597;-79
2023/06/20 08:40:24;;;;;;;9.20;8.03;;;;;;;;;;6192589;28;20424;-78
2023/06/20 08:43:29;;;;;;;9.43;7.85;;;;;;;;;;6202166;28;20054;-79
2023/06/20 08:46:31;;;;;;;8.10;7.28;;;;;;;;;;6181616;28;20046;-78
2023/06/20 08:49:33;;;;;;;8.13;7.28;;;;;;;;;;6195444;28;20081;-78
2023/06/20 08:52:48;;;;;;;8.30;7.50;;;;;;;;;;6205068;28;20049;-79
2023/06/20 08:55:52;;;;;;;9.38;7.43;;;;;;;;;;6204011;28;20120;-78
2023/06/20 08:58:54;;;;;;;7.65;6.88;;;;;;;;;;6202535;28;20049;-77
2023/06/20 09:01:56;;;;;;;8.90;8.00;;;;;;;;;;6197799;28;20057;-77
2023/06/20 09:05:05;;;;;;;8.07;7.35;;;;;;;;;;6184796;28;20073;-76
2023/06/20 09:08:07;;;;;;;8.70;7.75;;;;;;;;;;6200042;28;20054;-77
2023/06/20 09:11:12;;;;;;;8.02;7.22;;;;;;;;;;6201281;28;20045;-77
2023/06/20 09:14:15;;;;;;;8.25;7.32;;;;;;;;;;6203710;28;20041;-77
2023/06/20 09:17:19;;;;;;;9.13;7.38;;;;;;;;;;6202554;28;20561;-77
2023/06/20 09:20:26;;;;;;;7.90;7.13;;;;;;;;;;6198788;28;20534;-78
2023/06/20 09:23:30;;;;;;;8.18;7.07;;;;;;;;;;6202561;28;20046;-76
2023/06/20 09:26:33;;;;;;;8.25;7.20;;;;;;;;;;6198567;28;20133;-77
2023/06/20 09:29:49;;;;;;;7.85;6.90;;;;;;;;;;6205775;28;20053;-77
2023/06/20 09:32:51;;;;;;;8.13;7.32;;;;;;;;;;6205032;28;20416;-77
2023/06/20 09:35:52;;;;;;;8.13;7.30;;;;;;;;;;6201553;28;20050;-78
2023/06/20 09:38:56;;;;;;;8.90;8.00;;;;;;;;;;6199354;28;20045;-78
2023/06/20 09:41:57;;;;;;;8.63;7.82;;;;;;;;;;6198763;28;20437;-78
2023/06/20 09:44:59;;;;;;;9.00;8.20;;;;;;;;;;6204634;28;20050;-79
2023/06/20 09:48:02;;;;;;;9.20;8.40;;;;;;;;;;6201417;28;20259;-79
2023/06/20 09:51:07;;;;;;;8.07;7.28;;;;;;;;;;6196605;28;20128;-79
2023/06/20 09:54:12;;;;;;;8.43;7.63;;;;;;;;;;6199342;28;20046;-80
2023/06/20 09:57:17;;;;;;;8.88;8.05;;;;;;;;;;6190106;28;20355;-79
2023/06/20 10:00:20;;;;;;;8.52;7.72;;;;;;;;;;6199650;28;20046;-79
2023/06/20 10:03:22;;;;;;;8.15;7.38;;;;;;;;;;6198008;28;20050;-80
2023/06/20 10:06:25;;;;;;;7.65;6.95;;;;;;;;;;6205098;28;20048;-81
2023/06/20 10:09:28;;;;;;;7.85;7.10;;;;;;;;;;6186833;28;20042;-80
2023/06/20 10:12:31;;;;;;;8.50;7.57;;;;;;;;;;6187007;28;20049;-81
2023/06/20 10:15:34;;;;;;;9.65;8.23;;;;;;;;;;6192378;28;20034;-80
2023/06/20 10:18:36;;;;;;;;;;;;;;;;;;6186797;28;20053;-80
2023/06/20 10:21:58;;;;;;;8.25;7.55;;;;;;;;;;6200058;28;20331;-77
2023/06/20 10:25:03;;;;;;;9.20;7.57;;;;;;;;;;6196303;28;20041;-77
2023/06/20 10:28:05;;;;;;;8.18;7.22;;;;;;;;;;6188578;28;20052;-78
2023/06/20 10:31:07;;;;;;;7.57;6.88;;;;;;;;;;6185593;28;20042;-78
2023/06/20 10:34:33;;;;;;;7.97;7.18;;;;;;;;;;6205177;28;20041;-79
2023/06/20 10:37:38;;;;;;;7.78;6.97;;;;;;;;;;6181370;28;20045;-81
2023/06/20 10:40:40;;;;;;;7.80;7.05;;;;;;;;;;6194399;28;20527;-80
2023/06/20 10:43:47;;;;;;;8.48;7.10;;;;;;;;;;6202211;28;20046;-78
2023/06/20 10:46:49;;;;;;;7.85;7.05;;;;;;;;;;6198502;28;20042;-80
2023/06/20 10:49:51;;;;;;;8.02;6.85;;;;;;;;;;6200203;28;20149;-80
2023/06/20 10:52:53;;;;;;;8.05;7.25;;;;;;;;;;6185786;28;20042;-79
2023/06/20 10:55:55;;;;;;;8.52;7.63;;;;;;;;;;6194881;28;20050;-80
2023/06/20 10:58:56;;;;;;;7.50;6.80;;;;;;;;;;6196692;28;20043;-80
2023/06/20 11:01:58;;;;;;;7.97;7.20;;;;;;;;;;6182137;28;20046;-79
2023/06/20 11:05:01;;;;;;;7.55;6.82;;;;;;;;;;6198958;28;20057;-79
2023/06/20 11:08:10;;;;;;;7.60;6.45;;;;;;;;;;6195473;28;20038;-79
2023/06/20 11:11:13;;;;;;;6.88;6.28;;;;;;;;;;6183362;28;20061;-79
2023/06/20 11:14:17;;;;;;;7.22;6.53;;;;;;;;;;6185899;28;20046;-79
2023/06/20 11:17:19;;;;;;;7.35;6.65;;;;;;;;;;6181128;28;20076;-79
2023/06/20 11:20:23;;;;;;;7.63;6.57;;;;;;;;;;6187110;28;20133;-79
2023/06/20 11:23:34;;;;;;;6.60;6.00;;;;;;;;;;6179936;28;20047;-80
2023/06/20 11:26:37;;;;;;;7.75;6.70;;;;;;;;;;6193509;28;20050;-79
2023/06/20 11:29:38;;;;;;;;;;;;;;;;;;6187461;28;20487;-80
2023/06/20 11:32:40;;;;;;;6.57;5.97;;;;;;;;;;6183381;28;19921;-79
2023/06/20 11:35:48;;;;;;;6.63;6.03;;;;;;;;;;6184369;28;20050;-79
2023/06/20 11:38:50;;;;;;;7.30;6.55;;;;;;;;;;6203256;28;20050;-79
2023/06/20 11:41:51;;;;;;;7.28;6.57;;;;;;;;;;6173020;28;20059;-79
2023/06/20 11:45:06;;;;;;;6.65;6.05;;;;;;;;;;6186583;28;20609;-80
2023/06/20 11:48:09;;;;;;;6.50;5.88;;;;;;;;;;6198621;28;20420;-79
2023/06/20 11:51:12;;;;;;;6.32;5.72;;;;;;;;;;6198046;28;20054;-80
2023/06/20 11:54:17;;;;;;;6.30;5.68;;;;;;;;;;6163951;28;20046;-80
2023/06/20 11:57:32;;;;;;;6.60;6.00;;;;;;;;;;6173852;28;20042;-79
2023/06/20 12:00:34;;;;;;;6.22;5.70;;;;;;;;;;6198490;28;20052;-80
2023/06/20 12:03:37;;;;;;;6.80;5.50;;;;;;;;;;6179979;28;20052;-79
2023/06/20 12:06:42;;;;;;;7.13;6.35;;;;;;;;;;6180834;28;20046;-79
2023/06/20 12:09:44;;;;;;;6.00;5.50;;;;;;;;;;6194499;28;20049;-80
2023/06/20 12:12:46;;;;;;;5.57;5.15;;;;;;;;;;6192441;28;20471;-79
2023/06/20 12:15:48;;;;;;;6.78;5.53;;;;;;;;;;6194219;28;20045;-80
2023/06/20 12:18:51;;;;;;;6.47;5.93;;;;;;;;;;6179907;28;20116;-82
2023/06/20 12:21:53;;;;;;;6.03;5.43;;;;;;;;;;6199969;28;20046;-80
2023/06/20 12:24:55;;;;;;;7.00;6.30;;;;;;;;;;6174677;28;20050;-80
2023/06/20 12:27:58;;;;;;;5.78;5.28;;;;;;;;;;6181809;28;20049;-79
2023/06/20 12:30:59;;;;;;;6.22;5.63;;;;;;;;;;6176648;28;20046;-79
2023/06/20 12:34:01;;;;;;;6.35;5.75;;;;;;;;;;6183482;28;20062;-79
2023/06/20 12:37:03;;;;;;;6.05;5.55;;;;;;;;;;6189388;28;20152;-79
2023/06/20 12:40:05;;;;;;;;;;;;;;;;;;6178564;28;20069;-80
2023/06/20 12:43:07;;;;;;;6.45;5.95;;;;;;;;;;6205106;28;19921;-80
2023/06/20 12:46:10;;;;;;;6.50;5.93;;;;;;;;;;6197680;28;20046;-80
2023/06/20 12:49:11;;;;;;;6.65;6.10;;;;;;;;;;6198400;28;20411;-81
2023/06/20 12:52:13;;;;;;;6.57;5.90;;;;;;;;;;6200601;28;20504;-81
2023/06/20 12:55:15;;;;;;;6.93;6.05;;;;;;;;;;6193347;28;20129;-81
2023/06/20 12:58:17;;;;;;;6.47;5.93;;;;;;;;;;6198140;28;20053;-80
2023/06/20 13:01:20;;;;;;;6.18;5.68;;;;;;;;;;6184450;28;20184;-81
2023/06/20 13:04:22;;;;;;;10.60;6.43;;;;;;;;;;6201430;28;20058;-81
2023/06/20 13:07:24;;;;;;;6.53;5.93;;;;;;;;;;6198604;28;20050;-82
2023/06/20 13:10:25;;;;;;;6.18;5.60;;;;;;;;;;6192211;28;20073;-81
2023/06/20 13:13:28;;;;;;;6.53;6.03;;;;;;;;;;6173089;28;20535;-82
2023/06/20 13:16:31;;;;;;;7.35;6.53;;;;;;;;;;6188520;28;20069;-82
2023/06/20 13:19:33;;;;;;;6.43;5.93;;;;;;;;;;6197930;28;20156;-82
2023/06/20 13:22:35;;;;;;;6.22;5.72;;;;;;;;;;6195413;28;20413;-82
2023/06/20 13:25:37;;;;;;;6.50;5.90;;;;;;;;;;6221369;28;20101;-79
2023/06/20 13:28:38;;;;;;;;;;;;;;;;;;6203292;28;20967;-80
2023/06/20 13:31:40;;;;;;;6.72;6.22;;;;;;;;;;6189074;28;20020;-80
2023/06/20 13:34:42;;;;;;;6.63;6.03;;;;;;;;;;6192581;28;20124;-81
2023/06/20 13:37:44;;;;;;;6.35;5.85;;;;;;;;;;6184791;28;20050;-80
2023/06/20 13:40:46;;;;;;;6.65;6.00;;;;;;;;;;6199266;28;20049;-80
2023/06/20 13:43:49;;;;;;;6.75;6.15;;;;;;;;;;6190936;28;20053;-79
2023/06/20 13:46:51;;;;;;;6.65;6.15;;;;;;;;;;6203437;28;20078;-81
2023/06/20 13:49:53;;;;;;;7.40;6.80;;;;;;;;;;6184668;28;20050;-79
2023/06/20 13:52:54;;;;;;;7.30;6.70;;;;;;;;;;6195937;28;20528;-81
2023/06/20 13:55:56;;;;;;;7.15;6.45;;;;;;;;;;6187086;28;20433;-81
2023/06/20 13:58:58;;;;;;;7.30;6.70;;;;;;;;;;6190621;28;20129;-80
2023/06/20 14:02:00;;;;;;;6.20;5.70;;;;;;;;;;6185883;28;20050;-81
2023/06/20 14:05:01;;;;;;;;;;;;;;;;;;6196954;28;20349;-80
2023/06/20 14:08:03;;;;;;;7.07;6.32;;;;;;;;;;6194760;28;19925;-82
2023/06/20 14:11:05;;;;;;;7.60;6.97;;;;;;;;;;6189214;28;20058;-82
2023/06/20 14:14:07;;;;;;;;;;;;;;;;;;6183628;28;20671;-82
2023/06/20 14:17:08;;;;;;;7.75;7.10;;;;;;;;;;6197226;28;19932;-81
2023/06/20 14:20:11;;;;;;;7.55;6.85;;;;;;;;;;6161952;28;20712;-81
2023/06/20 14:23:12;;;;;;;7.72;6.95;;;;;;;;;;6196638;28;20641;-81
2023/06/20 14:26:15;;;;;;;7.55;6.85;;;;;;;;;;6194912;28;20085;-80
2023/06/20 14:29:17;;;;;;;7.10;6.60;;;;;;;;;;6199145;28;20176;-82
2023/06/20 14:32:19;;;;;;;;;;;;;;;;;;6196695;28;20046;-81
2023/06/20 14:35:20;;;;;;;7.75;7.15;;;;;;;;;;6198210;28;19925;-80
2023/06/20 14:38:22;;;;;;;;;;;;;;;;;;6202297;28;20380;-80
2023/06/20 14:41:23;;;;;;;8.48;7.65;;;;;;;;;;6191814;28;20000;-81
2023/06/20 14:44:25;;;;;;;8.00;7.40;;;;;;;;;;6163666;28;20065;-81
2023/06/20 14:47:27;;;;;;;7.82;7.22;;;;;;;;;;6182625;28;20139;-80
2023/06/20 14:50:29;;;;;;;;;;;;;;;;;;6179877;28;20050;-81
2023/06/20 14:53:47;;;;;;;7.90;7.18;;;;;;;;;;6192825;28;19933;-81
2023/06/20 14:56:49;;;;;;;8.13;7.50;;;;;;;;;;6196976;28;20049;-82
2023/06/20 14:59:51;;;;;;;7.93;7.22;;;;;;;;;;6197516;28;20045;-79
2023/06/20 15:02:52;;;;;;;7.75;7.05;;;;;;;;;;6206727;28;20038;-78
2023/06/20 15:05:54;;;;;;;;;;;;;;;;;;6188565;28;20038;-78
2023/06/20 15:08:58;;;;;;;7.90;7.20;;;;;;;;;;6195201;28;20306;-79
2023/06/20 15:11:59;;;;;;;8.57;7.72;;;;;;;;;;6181476;28;20046;-78
2023/06/20 15:15:01;;;;;;;8.23;7.53;;;;;;;;;;6205800;28;20125;-78
2023/06/20 15:18:03;;;;;;;7.53;6.93;;;;;;;;;;6207996;28;20049;-79
2023/06/20 15:21:05;;;;;;;7.88;7.15;;;;;;;;;;6180327;28;20042;-79
2023/06/20 15:24:08;;;;;;;8.68;6.93;;;;;;;;;;6199242;28;20045;-80
2023/06/20 15:27:10;;;;;;;7.60;6.90;;;;;;;;;;6198635;28;20180;-79
2023/06/20 15:30:13;;;;;;;8.13;7.32;;;;;;;;;;6181418;28;20057;-79
2023/06/20 15:33:18;;;;;;;7.57;6.88;;;;;;;;;;6199730;28;20054;-79
2023/06/20 15:36:20;;;;;;;7.97;7.18;;;;;;;;;;6202956;28;20042;-78
2023/06/20 15:39:22;;;;;;;;;;;;;;;;;;6198513;28;20172;-79
2023/06/20 15:42:24;;;;;;;7.80;7.10;;;;;;;;;;6201804;28;19929;-79
2023/06/20 15:45:26;;;;;;;7.72;7.03;;;;;;;;;;6187767;28;20074;-79
2023/06/20 15:48:28;;;;;;;7.32;6.72;;;;;;;;;;6200271;28;20049;-79
2023/06/20 15:51:31;;;;;;;7.32;6.72;;;;;;;;;;6167916;28;20118;-78
2023/06/20 15:54:33;;;;;;;7.28;6.57;;;;;;;;;;6176678;28;20504;-78
2023/06/20 15:57:36;;;;;;;8.05;7.25;;;;;;;;;;6197048;28;20092;-78
2023/06/20 16:00:39;;;;;;;8.00;7.30;;;;;;;;;;6166409;28;20111;-79
2023/06/20 16:03:41;;;;;;;8.00;7.30;;;;;;;;;;6196594;28;20053;-79
2023/06/20 16:06:43;;;;;;;7.70;6.95;;;;;;;;;;6180025;28;20137;-79
2023/06/20 16:09:45;;;;;;;7.43;6.63;;;;;;;;;;6177008;28;20038;-78
2023/06/20 16:12:47;;;;;;;;;;;;;;;;;;6197484;28;20043;-79
2023/06/20 16:15:49;;;;;;;8.73;7.93;;;;;;;;;;6181998;28;19922;-80
2023/06/20 16:18:51;;;;;;;8.75;7.85;;;;;;;;;;6203698;28;20046;-79
2023/06/20 16:21:53;;;;;;;8.27;7.38;;;;;;;;;;6203539;28;20089;-78
2023/06/20 16:24:56;;;;;;;8.43;7.72;;;;;;;;;;6172836;28;20089;-78
2023/06/20 16:27:58;;;;;;;8.27;7.57;;;;;;;;;;6201581;28;20034;-78
2023/06/20 16:30:59;;;;;;;7.90;7.20;;;;;;;;;;6185913;28;20042;-78
2023/06/20 16:34:01;;;;;;;9.05;7.30;;;;;;;;;;6185437;28;20062;-80
2023/06/20 16:37:03;;;;;;;8.43;7.60;;;;;;;;;;6196528;28;20529;-79
2023/06/20 16:40:05;;;;;;;;;;;;;;;;;;6184844;28;20511;-80
2023/06/20 16:43:07;;;;;;;8.20;7.40;;;;;;;;;;6186940;28;19933;-80
2023/06/20 16:46:10;;;;;;;8.20;7.50;;;;;;;;;;6201209;28;20053;-80
2023/06/20 16:49:11;;;;;;;8.05;7.35;;;;;;;;;;6202335;28;20504;-80
2023/06/20 16:52:13;;;;;;;8.02;7.28;;;;;;;;;;6196912;28;20050;-80
2023/06/20 16:55:15;;;;;;;8.13;7.43;;;;;;;;;;6179441;28;20079;-80
2023/06/20 16:58:17;;;;;;;8.38;7.53;;;;;;;;;;6180653;28;20050;-80
2023/06/20 17:01:19;;;;;;;8.73;7.95;;;;;;;;;;6199432;28;20086;-80
2023/06/20 17:04:21;;;;;;;8.38;7.57;;;;;;;;;;6202825;28;20046;-80
2023/06/20 17:07:23;;;;;;;7.93;7.22;;;;;;;;;;6175954;28;20169;-81
2023/06/20 17:10:24;;;;;;;8.02;7.32;;;;;;;;;;6185973;28;20096;-81
2023/06/20 17:13:26;;;;;;;7.85;7.15;;;;;;;;;;6192046;28;20543;-81
2023/06/20 17:16:28;;;;;;;8.80;7.53;;;;;;;;;;6185231;28;20515;-80
2023/06/20 17:19:30;;;;;;;8.48;7.75;;;;;;;;;;6209823;28;20045;-80
2023/06/20 17:22:31;;;;;;;7.57;6.88;;;;;;;;;;6202365;28;20077;-81
2023/06/20 17:25:33;;;;;;;8.20;7.40;;;;;;;;;;6202589;28;20501;-81
2023/06/20 17:28:35;;;;;;;8.80;7.43;;;;;;;;;;6188572;28;20097;-80
2023/06/20 17:31:37;;;;;;;8.15;7.30;;;;;;;;;;6204746;28;20124;-81
2023/06/20 17:34:38;;;;;;;8.05;7.22;;;;;;;;;;6202255;28;20049;-81
2023/06/20 17:37:40;;;;;;;8.45;7.57;;;;;;;;;;6202990;28;20057;-81
2023/06/20 17:40:42;;;;;;;9.88;7.63;;;;;;;;;;6186131;28;20249;-80
2023/06/20 17:43:44;;;;;;;9.52;8.18;;;;;;;;;;6203507;28;20141;-80
2023/06/20 17:46:48;;;;;;;8.80;7.72;;;;;;;;;;6206045;28;20092;-80
2023/06/20 17:49:58;;;;;;;9.25;8.25;;;;;;;;;;6198912;28;20046;-78
2023/06/20 17:53:01;;;;;;;8.88;8.07;;;;;;;;;;6194025;28;20049;-78
2023/06/20 17:56:03;;;;;;;8.98;8.18;;;;;;;;;;6193785;28;20046;-79
2023/06/20 17:59:05;;;;;;;;;;;;;;;;;;6201939;28;20057;-78
2023/06/20 18:02:08;;;;;;;8.18;7.38;;;;;;;;;;6173606;28;20383;-78
2023/06/20 18:05:10;;;;;;;9.68;7.93;;;;;;;;;;6184721;28;20050;-79
2023/06/20 18:08:12;;;;;;;8.55;7.65;;;;;;;;;;6204432;28;20041;-79
2023/06/20 18:11:13;;;;;;;8.82;8.02;;;;;;;;;;6200888;28;20049;-78
2023/06/20 18:14:16;;;;;;;9.53;8.37;;;;;;;;;;6207052;28;20050;-79
2023/06/20 18:17:17;;;;;;;;;;;;;;;;;;6183418;28;20445;-78
2023/06/20 18:20:20;;;;;;;9.32;8.20;;;;;;;;;;6208190;28;19936;-79
2023/06/20 18:23:22;;;;;;;8.87;7.97;;;;;;;;;;6172767;28;20046;-79